Terminal Aerodrome Forecast
Issued by NWS

Home | Current Version | Previous Version | Graphics & Text | Print | Product List | Glossary On
Versions: 1 2 3 4 5 6 7 8 9 10 11 12 13 14 15 16 17
000
FTUS43 KIWX 271445 AAB
TAFSBN
TAF AMD
KSBN 271445Z 2715/2812 03006KT 6SM -SHRA BR BKN004
      TEMPO 2715/2717 4SM -TSRA BR SCT005 BKN025CB
     FM271700 14007KT P6SM VCSH SCT050 OVC100
     FM271900 18007KT P6SM SCT040 BKN120
     FM280700 24003KT 3SM BR BKN150=

USA.gov is the U.S. government's official web portal to all federal, state and local government web resources and services.